createdAt,value
2022-08-22T00:00:18.905Z,21.08
2022-08-22T00:02:42.336Z,23.05
2022-08-22T00:02:45.056Z,23.58
2022-08-22T00:03:00.777Z,23.30
2022-08-22T00:03:12.111Z,22.05
2022-08-22T00:04:18.908Z,21.07
2022-08-22T00:05:18.906Z,21.06
2022-08-22T00:07:18.905Z,21.04
2022-08-22T00:08:18.905Z,21.03
2022-08-22T00:09:18.918Z,21.01
2022-08-22T00:10:25.070Z,20.99
2022-08-22T00:11:18.914Z,20.98
2022-08-22T00:12:18.934Z,20.97
2022-08-22T00:13:18.929Z,20.96
2022-08-22T00:16:18.921Z,20.95
2022-08-22T00:17:18.935Z,20.94
2022-08-22T00:18:19.034Z,20.93
2022-08-22T00:21:18.958Z,20.92
2022-08-22T00:23:18.958Z,20.93
2022-08-22T00:25:25.822Z,20.92
2022-08-22T00:27:18.966Z,20.90
2022-08-22T00:28:18.974Z,20.91
2022-08-22T00:29:18.970Z,20.90
2022-08-22T00:30:18.961Z,20.91
2022-08-22T00:32:18.979Z,20.89
2022-08-22T00:34:18.993Z,20.87
2022-08-22T00:39:18.986Z,20.86
2022-08-22T00:43:19.003Z,20.85
2022-08-22T00:44:18.995Z,20.86
2022-08-22T00:47:19.027Z,20.88
2022-08-22T00:49:19.031Z,20.89
2022-08-22T00:50:19.046Z,20.88
2022-08-22T00:51:19.018Z,20.87
2022-08-22T00:52:19.017Z,20.85
2022-08-22T00:53:19.019Z,20.83
2022-08-22T00:54:19.034Z,20.81
2022-08-22T00:55:19.036Z,20.79
2022-08-22T00:56:19.027Z,20.77
2022-08-22T00:57:19.044Z,20.76
2022-08-22T00:59:23.381Z,20.75
2022-08-22T01:00:19.046Z,20.74
2022-08-22T01:01:19.075Z,20.72
2022-08-22T01:03:19.059Z,20.71
2022-08-22T01:07:19.095Z,20.72
2022-08-22T01:08:19.068Z,20.73
2022-08-22T01:09:19.061Z,20.72
2022-08-22T01:13:19.095Z,20.71
2022-08-22T01:15:19.091Z,20.67
2022-08-22T01:16:19.086Z,20.64
2022-08-22T01:18:19.090Z,20.63
2022-08-22T01:19:19.087Z,20.62
2022-08-22T01:22:19.118Z,20.61
2022-08-22T01:23:19.126Z,20.62
2022-08-22T01:24:19.116Z,20.63
2022-08-22T01:26:19.393Z,20.64
2022-08-22T01:27:19.125Z,20.65
2022-08-22T01:28:19.126Z,20.66
2022-08-22T01:29:19.113Z,20.68
2022-08-22T01:30:19.120Z,20.69
2022-08-22T01:32:19.154Z,20.70
2022-08-22T01:33:19.153Z,20.71
2022-08-22T01:35:19.135Z,20.70
2022-08-22T01:36:19.137Z,20.69
2022-08-22T01:37:19.149Z,20.68
2022-08-22T01:38:19.140Z,20.66
2022-08-22T01:39:19.155Z,20.65
2022-08-22T01:40:19.285Z,20.63
2022-08-22T01:41:19.144Z,20.62
2022-08-22T01:42:19.147Z,20.61
2022-08-22T01:44:19.170Z,20.62
2022-08-22T01:45:19.151Z,20.61
2022-08-22T01:46:20.661Z,20.62
2022-08-22T01:47:19.173Z,20.63
2022-08-22T01:52:19.583Z,20.64
2022-08-22T01:53:19.191Z,20.63
2022-08-22T01:54:19.193Z,20.64
2022-08-22T01:55:19.185Z,20.63
2022-08-22T01:56:19.184Z,20.62
2022-08-22T01:57:19.206Z,20.61
2022-08-22T01:58:19.199Z,20.60
2022-08-22T01:59:19.197Z,20.59
2022-08-22T02:01:19.240Z,20.57
2022-08-22T02:02:19.201Z,20.56
2022-08-22T02:03:19.201Z,20.55
2022-08-22T02:04:19.193Z,20.53
2022-08-22T02:05:19.219Z,20.51
2022-08-22T02:10:19.220Z,20.50
2022-08-22T02:11:19.241Z,20.48
2022-08-22T02:14:19.228Z,20.46
2022-08-22T02:15:19.252Z,20.44
2022-08-22T02:16:19.237Z,20.42
2022-08-22T02:17:19.251Z,20.41
2022-08-22T02:18:19.237Z,20.39
2022-08-22T02:19:19.235Z,20.38
2022-08-22T02:20:20.443Z,20.28
2022-08-22T02:21:19.252Z,20.25
2022-08-22T02:22:19.268Z,20.24
2022-08-22T02:23:19.269Z,20.21
2022-08-22T02:24:19.276Z,20.13
2022-08-22T02:25:19.278Z,20.09
2022-08-22T02:26:19.254Z,20.08
2022-08-22T02:27:19.284Z,20.07
2022-08-22T02:28:19.268Z,20.06
2022-08-22T02:29:19.278Z,20.05
2022-08-22T02:30:19.262Z,20.04
2022-08-22T02:31:19.274Z,20.03
2022-08-22T02:33:19.301Z,20.01
2022-08-22T02:34:19.307Z,19.99
2022-08-22T02:35:19.309Z,19.98
2022-08-22T02:36:19.301Z,19.97
2022-08-22T02:37:19.297Z,19.96
2022-08-22T02:38:19.314Z,19.94
2022-08-22T02:40:19.356Z,19.88
2022-08-22T02:41:19.300Z,19.81
2022-08-22T02:42:19.321Z,19.79
2022-08-22T02:43:19.330Z,19.77
2022-08-22T02:44:19.307Z,19.75
2022-08-22T02:45:19.327Z,19.72
2022-08-22T02:46:19.310Z,19.69
2022-08-22T02:47:19.308Z,19.66
2022-08-22T02:48:19.345Z,19.64
2022-08-22T02:49:19.333Z,19.60
2022-08-22T02:50:19.346Z,19.59
2022-08-22T02:52:19.338Z,19.58
2022-08-22T02:53:19.345Z,19.56
2022-08-22T02:59:19.363Z,19.54
2022-08-22T03:00:31.682Z,19.53
2022-08-22T03:01:19.413Z,19.52
2022-08-22T03:02:19.366Z,19.51
2022-08-22T03:03:19.367Z,19.50
2022-08-22T03:04:19.374Z,19.49
2022-08-22T03:05:19.363Z,19.50
2022-08-22T03:07:19.369Z,19.51
2022-08-22T03:08:19.391Z,19.49
2022-08-22T03:12:19.409Z,19.48
2022-08-22T03:14:19.397Z,19.49
2022-08-22T03:18:19.409Z,19.48
2022-08-22T03:22:19.417Z,19.47
2022-08-22T03:23:19.411Z,19.46
2022-08-22T03:24:19.427Z,19.44
2022-08-22T03:25:19.405Z,19.43
2022-08-22T03:26:19.412Z,19.41
2022-08-22T03:27:32.373Z,19.39
2022-08-22T03:28:19.451Z,19.38
2022-08-22T03:29:19.437Z,19.37
2022-08-22T03:30:19.419Z,19.35
2022-08-22T03:31:19.430Z,19.34
2022-08-22T03:32:19.430Z,19.33
2022-08-22T03:34:19.440Z,19.31
2022-08-22T03:35:19.436Z,19.30
2022-08-22T03:36:19.425Z,19.29
2022-08-22T03:37:19.472Z,19.28
2022-08-22T03:38:19.441Z,19.27
2022-08-22T03:39:19.444Z,19.25
2022-08-22T03:40:19.506Z,19.24
2022-08-22T03:41:19.468Z,19.22
2022-08-22T03:42:19.465Z,19.21
2022-08-22T03:44:19.469Z,19.20
2022-08-22T03:45:19.452Z,19.19
2022-08-22T03:46:19.464Z,19.18
2022-08-22T03:47:19.474Z,19.17
2022-08-22T03:48:19.489Z,19.16
2022-08-22T03:49:19.488Z,19.15
2022-08-22T03:50:19.496Z,19.13
2022-08-22T03:53:19.523Z,19.12
2022-08-22T03:54:19.488Z,19.13
2022-08-22T03:56:19.521Z,19.12
2022-08-22T03:57:19.484Z,19.11
2022-08-22T03:58:27.836Z,19.10
2022-08-22T03:59:19.513Z,19.08
2022-08-22T04:00:19.520Z,19.07
2022-08-22T04:02:31.471Z,19.06
2022-08-22T04:03:19.514Z,19.04
2022-08-22T04:04:19.525Z,19.01
2022-08-22T04:05:20.497Z,18.99
2022-08-22T04:06:19.526Z,18.98
2022-08-22T04:07:31.746Z,18.96
2022-08-22T04:09:19.545Z,18.97
2022-08-22T04:10:19.519Z,18.96
2022-08-22T04:12:19.533Z,18.95
2022-08-22T04:14:19.536Z,18.94
2022-08-22T04:15:19.567Z,18.92
2022-08-22T04:16:19.548Z,18.90
2022-08-22T04:17:19.544Z,18.89
2022-08-22T04:18:19.551Z,18.88
2022-08-22T04:19:19.552Z,18.87
2022-08-22T04:21:19.564Z,18.88
2022-08-22T04:22:19.560Z,18.90
2022-08-22T04:24:19.593Z,18.91
2022-08-22T04:25:19.564Z,18.93
2022-08-22T04:27:19.597Z,18.94
2022-08-22T04:28:19.571Z,18.95
2022-08-22T04:30:19.580Z,18.96
2022-08-22T04:32:19.594Z,18.97
2022-08-22T04:35:19.693Z,18.96
2022-08-22T04:38:19.588Z,18.95
2022-08-22T04:39:19.613Z,18.94
2022-08-22T04:41:19.605Z,18.93
2022-08-22T04:43:19.600Z,18.91
2022-08-22T04:44:19.621Z,18.89
2022-08-22T04:45:19.618Z,18.86
2022-08-22T04:46:19.620Z,18.85
2022-08-22T04:47:19.620Z,18.84
2022-08-22T04:49:19.642Z,18.85
2022-08-22T04:50:19.638Z,18.86
2022-08-22T04:51:19.635Z,18.87
2022-08-22T04:52:19.641Z,18.86
2022-08-22T04:56:19.647Z,18.85
2022-08-22T04:57:19.654Z,18.86
2022-08-22T04:59:19.643Z,18.87
2022-08-22T05:00:19.662Z,18.85
2022-08-22T05:02:19.662Z,18.86
2022-08-22T05:03:19.680Z,18.87
2022-08-22T05:04:19.664Z,18.89
2022-08-22T05:05:19.667Z,18.90
2022-08-22T05:06:19.694Z,18.91
2022-08-22T05:07:19.700Z,18.92
2022-08-22T05:12:19.689Z,18.91
2022-08-22T05:13:19.715Z,18.90
2022-08-22T05:14:19.706Z,18.84
2022-08-22T05:15:22.909Z,18.79
2022-08-22T05:17:19.730Z,18.78
2022-08-22T05:18:19.702Z,18.77
2022-08-22T05:19:24.946Z,18.79
2022-08-22T05:20:19.699Z,18.80
2022-08-22T05:21:19.726Z,18.81
2022-08-22T05:22:19.721Z,18.83
2022-08-22T05:23:19.727Z,18.85
2022-08-22T05:24:19.714Z,18.88
2022-08-22T05:25:19.736Z,18.92
2022-08-22T05:26:19.719Z,18.96
2022-08-22T05:27:19.722Z,19.00
2022-08-22T05:28:19.732Z,19.06
2022-08-22T05:29:19.715Z,19.10
2022-08-22T05:30:19.733Z,19.14
2022-08-22T05:31:19.730Z,19.17
2022-08-22T05:32:19.755Z,19.20
2022-08-22T05:33:19.765Z,19.24
2022-08-22T05:34:19.735Z,19.23
2022-08-22T05:35:19.731Z,19.24
2022-08-22T05:36:19.743Z,19.26
2022-08-22T05:37:19.751Z,19.28
2022-08-22T05:38:19.761Z,19.31
2022-08-22T05:39:19.753Z,19.34
2022-08-22T05:40:19.816Z,19.39
2022-08-22T05:41:19.747Z,19.43
2022-08-22T05:42:19.766Z,19.46
2022-08-22T05:43:19.756Z,19.51
2022-08-22T05:44:19.782Z,19.56
2022-08-22T05:45:19.768Z,19.59
2022-08-22T05:46:19.769Z,19.62
2022-08-22T05:47:19.821Z,19.67
2022-08-22T05:48:19.773Z,19.74
2022-08-22T05:49:19.770Z,19.79
2022-08-22T05:50:19.783Z,19.84
2022-08-22T05:51:19.795Z,19.90
2022-08-22T05:52:19.840Z,19.94
2022-08-22T05:53:19.791Z,19.97
2022-08-22T05:54:19.808Z,20.01
2022-08-22T05:55:19.786Z,20.06
2022-08-22T05:56:19.809Z,20.11
2022-08-22T05:57:19.807Z,20.15
2022-08-22T05:58:19.813Z,20.21
2022-08-22T05:59:19.807Z,20.26
2022-08-22T06:00:21.526Z,20.31
2022-08-22T06:01:19.887Z,20.39
2022-08-22T06:02:19.838Z,20.45
2022-08-22T06:03:19.825Z,20.49
2022-08-22T06:04:19.820Z,20.54
2022-08-22T06:05:19.837Z,20.58
2022-08-22T06:06:19.829Z,20.63
2022-08-22T06:07:19.840Z,20.67
2022-08-22T06:08:19.825Z,20.71
2022-08-22T06:09:19.838Z,20.74
2022-08-22T06:10:19.834Z,20.76
2022-08-22T06:12:21.847Z,20.80
2022-08-22T06:13:21.996Z,20.84
2022-08-22T06:14:19.853Z,20.88
2022-08-22T06:15:20.797Z,20.92
2022-08-22T06:16:19.841Z,20.96
2022-08-22T06:17:19.854Z,21.01
2022-08-22T06:18:19.840Z,21.08
2022-08-22T06:19:20.200Z,21.14
2022-08-22T06:20:19.888Z,21.21
2022-08-22T06:21:19.872Z,21.26
2022-08-22T06:22:19.876Z,21.31
2022-08-22T06:23:19.856Z,21.36
2022-08-22T06:24:19.853Z,21.41
2022-08-22T06:25:19.978Z,21.45
2022-08-22T06:26:21.284Z,21.49
2022-08-22T06:27:19.911Z,21.55
2022-08-22T06:28:19.905Z,21.61
2022-08-22T06:29:19.876Z,21.68
2022-08-22T06:30:19.902Z,21.72
2022-08-22T06:31:19.889Z,21.78
2022-08-22T06:32:58.907Z,21.75
2022-08-22T06:33:19.906Z,21.64
2022-08-22T06:34:19.900Z,21.63
2022-08-22T06:35:19.925Z,21.66
2022-08-22T06:36:20.660Z,21.71
2022-08-22T06:37:19.893Z,21.78
2022-08-22T06:38:19.909Z,21.85
2022-08-22T06:39:19.926Z,21.93
2022-08-22T06:40:20.001Z,22.00
2022-08-22T06:41:19.910Z,22.07
2022-08-22T06:42:19.912Z,22.16
2022-08-22T06:43:19.934Z,22.25
2022-08-22T06:44:19.922Z,22.33
2022-08-22T06:45:19.925Z,22.41
2022-08-22T06:46:19.941Z,22.49
2022-08-22T06:47:19.937Z,22.56
2022-08-22T06:48:19.937Z,22.63
2022-08-22T06:49:19.957Z,22.70
2022-08-22T06:50:19.952Z,22.75
2022-08-22T06:51:19.934Z,22.80
2022-08-22T06:52:19.949Z,22.86
2022-08-22T06:53:19.944Z,22.94
2022-08-22T06:54:19.946Z,23.01
2022-08-22T06:55:19.988Z,23.08
2022-08-22T06:56:19.949Z,23.15
2022-08-22T06:57:19.973Z,23.24
2022-08-22T06:58:19.952Z,23.35
2022-08-22T06:59:19.948Z,23.45
2022-08-22T07:00:19.992Z,23.55
2022-08-22T07:01:20.018Z,23.63
2022-08-22T07:02:19.980Z,23.71
2022-08-22T07:03:19.972Z,23.81
2022-08-22T07:04:19.992Z,23.89
2022-08-22T07:05:19.966Z,23.98
2022-08-22T07:06:19.997Z,24.08
2022-08-22T07:07:19.990Z,24.18
2022-08-22T07:08:19.998Z,24.09
2022-08-22T07:09:19.988Z,24.01
2022-08-22T07:10:20.009Z,23.90
2022-08-22T07:11:19.992Z,23.96
2022-08-22T07:12:19.982Z,24.09
2022-08-22T07:13:20.009Z,24.25
2022-08-22T07:14:20.020Z,24.41
2022-08-22T07:15:20.021Z,24.55
2022-08-22T07:16:20.019Z,24.69
2022-08-22T07:17:20.008Z,24.81
2022-08-22T07:18:20.024Z,24.95
2022-08-22T07:19:20.031Z,25.07
2022-08-22T07:20:20.013Z,25.17
2022-08-22T07:21:20.007Z,25.30
2022-08-22T07:22:20.018Z,25.42
2022-08-22T07:23:20.024Z,25.54
2022-08-22T07:24:20.022Z,25.67
2022-08-22T07:25:20.034Z,25.79
2022-08-22T07:26:20.041Z,25.89
2022-08-22T07:27:20.035Z,26.01
2022-08-22T07:28:20.063Z,26.11
2022-08-22T07:29:20.074Z,26.24
2022-08-22T07:30:27.920Z,26.36
2022-08-22T07:31:20.052Z,26.47
2022-08-22T07:32:20.068Z,26.59
2022-08-22T07:33:26.716Z,26.70
2022-08-22T07:34:20.104Z,26.82
2022-08-22T07:35:20.080Z,26.95
2022-08-22T07:36:22.598Z,27.08
2022-08-22T07:37:20.059Z,27.21
2022-08-22T07:38:20.098Z,27.34
2022-08-22T07:39:20.095Z,27.45
2022-08-22T07:40:20.171Z,27.57
2022-08-22T07:41:20.087Z,27.71
2022-08-22T07:42:20.112Z,27.85
2022-08-22T07:43:20.078Z,27.98
2022-08-22T07:44:20.097Z,28.11
2022-08-22T07:45:20.083Z,28.18
2022-08-22T07:46:20.115Z,28.26
2022-08-22T07:47:26.372Z,28.36
2022-08-22T07:48:26.014Z,28.48
2022-08-22T07:49:20.102Z,28.58
2022-08-22T07:50:20.112Z,28.69
2022-08-22T07:51:20.121Z,28.78
2022-08-22T07:52:20.114Z,28.86
2022-08-22T07:53:20.127Z,28.93
2022-08-22T07:54:20.115Z,29.00
2022-08-22T07:55:20.116Z,29.07
2022-08-22T07:56:20.118Z,29.12
2022-08-22T07:57:20.121Z,29.20
2022-08-22T07:58:20.110Z,29.28
2022-08-22T07:59:20.115Z,29.34
2022-08-22T08:00:20.127Z,29.38
2022-08-22T08:01:20.192Z,29.41
2022-08-22T08:02:20.130Z,29.46
2022-08-22T08:03:20.117Z,29.55
2022-08-22T08:04:20.155Z,29.63
2022-08-22T08:05:20.145Z,29.73
2022-08-22T08:06:20.135Z,29.83
2022-08-22T08:07:20.126Z,29.96
2022-08-22T08:08:20.137Z,30.07
2022-08-22T08:09:20.151Z,30.20
2022-08-22T08:10:20.151Z,30.32
2022-08-22T08:11:20.181Z,30.40
2022-08-22T08:12:20.160Z,30.47
2022-08-22T08:13:20.155Z,30.49
2022-08-22T08:14:20.149Z,30.51
2022-08-22T08:15:20.158Z,30.55
2022-08-22T08:16:20.165Z,30.63
2022-08-22T08:17:20.167Z,30.70
2022-08-22T08:18:20.165Z,30.79
2022-08-22T08:19:20.173Z,30.84
2022-08-22T08:20:20.179Z,30.90
2022-08-22T08:21:20.229Z,30.98
2022-08-22T08:22:20.198Z,31.07
2022-08-22T08:23:23.587Z,31.17
2022-08-22T08:24:20.195Z,31.24
2022-08-22T08:25:20.183Z,31.31
2022-08-22T08:26:20.193Z,31.37
2022-08-22T08:27:20.174Z,31.42
2022-08-22T08:28:20.184Z,31.46
2022-08-22T08:29:20.203Z,31.54
2022-08-22T08:30:20.218Z,31.63
2022-08-22T08:31:20.208Z,31.71
2022-08-22T08:32:20.201Z,31.80
2022-08-22T08:33:25.091Z,31.90
2022-08-22T08:34:20.225Z,32.00
2022-08-22T08:35:20.202Z,32.02
2022-08-22T08:36:20.246Z,32.09
2022-08-22T08:37:20.225Z,32.15
2022-08-22T08:38:20.221Z,32.22
2022-08-22T08:39:20.235Z,32.28
2022-08-22T08:40:20.266Z,32.35
2022-08-22T08:41:22.637Z,32.41
2022-08-22T08:42:20.241Z,32.42
2022-08-22T08:43:20.240Z,32.45
2022-08-22T08:44:20.239Z,32.50
2022-08-22T08:45:20.238Z,32.55
2022-08-22T08:46:20.233Z,32.57
2022-08-22T08:47:20.254Z,32.56
2022-08-22T08:48:20.252Z,32.59
2022-08-22T08:49:20.245Z,32.65
2022-08-22T08:50:20.246Z,32.74
2022-08-22T08:51:20.253Z,32.78
2022-08-22T08:52:20.279Z,32.83
2022-08-22T08:55:22.628Z,32.86
2022-08-22T08:56:20.268Z,32.89
2022-08-22T08:57:20.294Z,32.95
2022-08-22T08:58:20.265Z,33.02
2022-08-22T08:59:20.306Z,33.09
2022-08-22T09:00:20.293Z,33.14
2022-08-22T09:01:20.338Z,33.22
2022-08-22T09:02:20.527Z,33.27
2022-08-22T09:03:29.830Z,33.33
2022-08-22T09:04:20.278Z,33.40
2022-08-22T09:05:20.292Z,33.45
2022-08-22T09:06:20.281Z,33.53
2022-08-22T09:07:20.314Z,33.60
2022-08-22T09:08:20.304Z,33.65
2022-08-22T09:09:20.304Z,33.68
2022-08-22T09:10:20.303Z,33.71
2022-08-22T09:11:27.085Z,33.72
2022-08-22T09:12:20.324Z,33.74
2022-08-22T09:13:20.321Z,33.77
2022-08-22T09:14:20.339Z,33.82
2022-08-22T09:15:20.336Z,33.91
2022-08-22T09:16:20.329Z,34.00
2022-08-22T09:17:21.126Z,34.05
2022-08-22T09:18:20.318Z,34.10
2022-08-22T09:19:20.329Z,34.17
2022-08-22T09:20:20.327Z,34.20
2022-08-22T09:21:30.609Z,34.13
2022-08-22T09:22:20.335Z,34.06
2022-08-22T09:24:20.343Z,34.07
2022-08-22T09:25:20.337Z,34.02
2022-08-22T09:26:20.363Z,33.92
2022-08-22T09:27:20.344Z,33.83
2022-08-22T09:28:20.355Z,33.71
2022-08-22T09:29:20.347Z,33.67
2022-08-22T09:30:28.525Z,33.66
2022-08-22T09:31:33.234Z,33.64
2022-08-22T09:32:20.362Z,33.63
2022-08-22T09:33:20.357Z,33.62
2022-08-22T09:34:24.232Z,33.66
2022-08-22T09:35:20.385Z,33.72
2022-08-22T09:36:20.390Z,33.82
2022-08-22T09:37:20.385Z,33.92
2022-08-22T09:38:20.380Z,34.03
2022-08-22T09:39:20.402Z,34.14
2022-08-22T09:40:24.882Z,34.24
2022-08-22T09:41:20.408Z,34.27
2022-08-22T09:42:20.381Z,34.29
2022-08-22T09:43:21.492Z,34.30
2022-08-22T09:45:20.405Z,34.33
2022-08-22T09:46:20.421Z,34.35
2022-08-22T09:47:24.334Z,34.33
2022-08-22T09:49:20.417Z,34.35
2022-08-22T09:50:20.474Z,34.41
2022-08-22T09:51:32.220Z,34.44
2022-08-22T09:52:27.870Z,34.47
2022-08-22T09:53:20.411Z,34.51
2022-08-22T09:54:20.429Z,34.52
2022-08-22T09:55:25.214Z,34.54
2022-08-22T09:56:20.420Z,34.55
2022-08-22T09:57:22.550Z,34.58
2022-08-22T09:58:20.442Z,34.60
2022-08-22T09:59:20.429Z,34.59
2022-08-22T10:00:22.481Z,34.56
2022-08-22T10:01:20.487Z,34.55
2022-08-22T10:02:20.461Z,34.53
2022-08-22T10:03:20.448Z,34.49
2022-08-22T10:04:20.469Z,34.30
2022-08-22T10:05:40.872Z,34.00
2022-08-22T10:06:20.475Z,33.87
2022-08-22T10:07:20.460Z,33.84
2022-08-22T10:08:20.460Z,33.86
2022-08-22T10:09:21.681Z,33.90
2022-08-22T10:10:20.483Z,33.91
2022-08-22T10:11:20.485Z,33.86
2022-08-22T10:12:20.467Z,33.74
2022-08-22T10:13:20.463Z,33.67
2022-08-22T10:14:22.173Z,33.61
2022-08-22T10:15:20.522Z,33.60
2022-08-22T10:16:20.497Z,33.58
2022-08-22T10:17:22.006Z,33.53
2022-08-22T10:18:20.481Z,33.49
2022-08-22T10:19:20.517Z,33.51
2022-08-22T10:20:20.625Z,33.53
2022-08-22T10:21:20.491Z,33.58
2022-08-22T10:22:20.489Z,33.62
2022-08-22T10:24:25.749Z,33.67
2022-08-22T10:25:20.558Z,33.73
2022-08-22T10:26:22.865Z,33.80
2022-08-22T10:27:20.507Z,33.84
2022-08-22T10:28:20.507Z,33.87
2022-08-22T10:31:20.531Z,33.83
2022-08-22T10:32:20.521Z,33.70
2022-08-22T10:33:20.526Z,33.56
2022-08-22T10:34:20.530Z,33.46
2022-08-22T10:35:20.546Z,33.44
2022-08-22T10:36:20.556Z,33.45
2022-08-22T10:37:23.724Z,33.43
2022-08-22T10:38:20.548Z,33.41
2022-08-22T10:39:22.291Z,33.13
2022-08-22T10:40:20.630Z,32.88
2022-08-22T10:41:22.643Z,32.75
2022-08-22T10:42:23.270Z,32.69
2022-08-22T10:43:20.552Z,32.70
2022-08-22T10:45:32.125Z,32.66
2022-08-22T10:46:20.559Z,32.59
2022-08-22T10:47:20.588Z,32.56
2022-08-22T10:48:20.566Z,32.55
2022-08-22T10:50:20.596Z,32.57
2022-08-22T10:51:20.596Z,32.62
2022-08-22T10:52:20.587Z,32.66
2022-08-22T10:53:26.465Z,32.68
2022-08-22T10:55:20.583Z,32.74
2022-08-22T10:56:21.339Z,32.53
2022-08-22T10:57:20.974Z,32.49
2022-08-22T10:58:21.770Z,32.47
2022-08-22T10:59:22.899Z,32.37
2022-08-22T11:00:22.906Z,32.24
2022-08-22T11:01:38.156Z,32.03
2022-08-22T11:02:20.627Z,31.93
2022-08-22T11:03:23.423Z,31.77
2022-08-22T11:04:20.613Z,31.74
2022-08-22T11:07:21.847Z,31.76
2022-08-22T11:08:20.610Z,31.82
2022-08-22T11:09:20.633Z,31.89
2022-08-22T11:10:20.623Z,31.98
2022-08-22T11:11:20.641Z,32.04
2022-08-22T11:12:20.641Z,32.08
2022-08-22T11:13:20.634Z,32.13
2022-08-22T11:14:20.641Z,32.18
2022-08-22T11:15:34.735Z,32.23
2022-08-22T11:16:20.668Z,32.22
2022-08-22T11:17:27.525Z,32.23
2022-08-22T11:18:20.643Z,32.26
2022-08-22T11:19:20.674Z,32.28
2022-08-22T11:20:21.266Z,32.25
2022-08-22T11:21:20.657Z,32.21
2022-08-22T11:22:20.775Z,32.20
2022-08-22T11:23:20.681Z,32.18
2022-08-22T11:24:34.545Z,32.17
2022-08-22T11:25:29.222Z,32.22
2022-08-22T11:27:20.985Z,32.21
2022-08-22T11:28:20.666Z,32.20
2022-08-22T11:29:20.697Z,32.18
2022-08-22T11:30:20.698Z,32.13
2022-08-22T11:31:20.677Z,32.12
2022-08-22T11:32:20.681Z,32.15
2022-08-22T11:33:20.681Z,32.13
2022-08-22T11:34:20.733Z,32.10
2022-08-22T11:35:20.690Z,32.07
2022-08-22T11:36:27.102Z,32.01
2022-08-22T11:37:23.744Z,31.90
2022-08-22T11:38:20.715Z,31.77
2022-08-22T11:39:20.712Z,31.64
2022-08-22T11:40:20.879Z,31.58
2022-08-22T11:41:20.723Z,31.56
2022-08-22T11:42:21.919Z,31.43
2022-08-22T11:43:20.704Z,31.37
2022-08-22T11:45:21.465Z,31.40
2022-08-22T11:46:20.754Z,31.43
2022-08-22T11:47:20.746Z,31.45
2022-08-22T11:48:20.743Z,31.44
2022-08-22T11:49:20.734Z,31.37
2022-08-22T11:50:20.746Z,31.26
2022-08-22T11:51:25.063Z,31.14
2022-08-22T11:52:20.742Z,31.01
2022-08-22T11:53:20.739Z,30.87
2022-08-22T11:54:20.747Z,30.79
2022-08-22T11:56:20.771Z,30.83
2022-08-22T11:57:20.763Z,30.92
2022-08-22T11:58:20.894Z,31.04
2022-08-22T11:59:20.765Z,31.09
2022-08-22T12:00:21.048Z,31.05
2022-08-22T12:01:20.772Z,31.01
2022-08-22T12:02:20.807Z,30.98
2022-08-22T12:04:20.775Z,30.96
2022-08-22T12:05:24.506Z,30.93
2022-08-22T12:06:20.785Z,30.91
2022-08-22T12:08:21.324Z,30.94
2022-08-22T12:09:20.775Z,30.99
2022-08-22T12:10:20.776Z,31.03
2022-08-22T12:11:20.799Z,30.74
2022-08-22T12:12:20.801Z,30.59
2022-08-22T12:13:20.814Z,30.37
2022-08-22T12:14:20.785Z,30.30
2022-08-22T12:16:20.814Z,30.35
2022-08-22T12:17:50.957Z,30.40
2022-08-22T12:18:21.503Z,30.47
2022-08-22T12:20:20.875Z,30.49
2022-08-22T12:21:20.822Z,30.48
2022-08-22T12:22:20.835Z,30.46
2022-08-22T12:23:20.909Z,30.43
2022-08-22T12:24:21.140Z,30.34
2022-08-22T12:26:22.054Z,30.36
2022-08-22T12:27:28.588Z,30.37
2022-08-22T12:28:20.838Z,30.32
2022-08-22T12:29:33.497Z,30.33
2022-08-22T12:30:20.872Z,30.30
2022-08-22T12:31:20.855Z,30.29
2022-08-22T12:32:27.518Z,30.22
2022-08-22T12:33:23.015Z,30.24
2022-08-22T12:34:20.860Z,30.29
2022-08-22T12:35:20.873Z,30.35
2022-08-22T12:36:20.856Z,30.44
2022-08-22T12:37:20.866Z,30.50
2022-08-22T12:38:28.920Z,30.46
2022-08-22T12:39:20.876Z,30.40
2022-08-22T12:40:20.898Z,30.36
2022-08-22T12:41:27.714Z,30.30
2022-08-22T12:42:20.894Z,30.22
2022-08-22T12:43:21.756Z,30.02
2022-08-22T12:44:20.901Z,29.95
2022-08-22T12:45:20.914Z,29.93
2022-08-22T12:46:20.886Z,29.97
2022-08-22T12:47:20.882Z,29.98
2022-08-22T12:48:20.908Z,30.02
2022-08-22T12:49:20.896Z,30.04
2022-08-22T12:51:20.900Z,30.03
2022-08-22T12:52:20.900Z,30.01
2022-08-22T12:53:20.926Z,29.98
2022-08-22T12:54:20.893Z,29.91
2022-08-22T12:55:20.892Z,29.88
2022-08-22T12:56:20.936Z,29.86
2022-08-22T12:57:24.414Z,29.89
2022-08-22T12:58:20.926Z,29.92
2022-08-22T12:59:20.902Z,29.95
2022-08-22T13:00:23.006Z,29.94
2022-08-22T13:01:23.425Z,29.96
2022-08-22T13:02:20.932Z,29.97
2022-08-22T13:03:20.918Z,29.93
2022-08-22T13:04:33.018Z,29.89
2022-08-22T13:05:20.920Z,29.91
2022-08-22T13:06:20.944Z,29.94
2022-08-22T13:08:20.956Z,29.93
2022-08-22T13:09:28.667Z,29.77
2022-08-22T13:10:20.948Z,29.73
2022-08-22T13:11:23.378Z,29.74
2022-08-22T13:12:21.119Z,29.78
2022-08-22T13:13:23.222Z,29.80
2022-08-22T13:14:24.077Z,29.83
2022-08-22T13:15:20.955Z,29.86
2022-08-22T13:16:20.978Z,29.92
2022-08-22T13:17:24.550Z,29.98
2022-08-22T13:18:29.619Z,30.02
2022-08-22T13:19:20.967Z,30.07
2022-08-22T13:20:20.974Z,30.11
2022-08-22T13:21:20.986Z,30.13
2022-08-22T13:22:20.982Z,30.05
2022-08-22T13:23:20.987Z,30.03
2022-08-22T13:24:22.699Z,30.02
2022-08-22T13:25:25.594Z,29.91
2022-08-22T13:26:31.822Z,29.80
2022-08-22T13:27:21.004Z,29.68
2022-08-22T13:28:21.031Z,29.29
2022-08-22T13:29:26.533Z,29.04
2022-08-22T13:30:21.001Z,28.87
2022-08-22T13:31:20.998Z,28.80
2022-08-22T13:32:21.028Z,28.84
2022-08-22T13:33:21.017Z,28.89
2022-08-22T13:34:22.884Z,28.83
2022-08-22T13:35:24.382Z,28.85
2022-08-22T13:36:21.027Z,28.89
2022-08-22T13:37:24.528Z,28.84
2022-08-22T13:39:21.032Z,28.89
2022-08-22T13:40:21.106Z,28.97
2022-08-22T13:41:21.047Z,29.04
2022-08-22T13:42:27.789Z,29.08
2022-08-22T13:43:21.046Z,29.13
2022-08-22T13:44:21.037Z,29.18
2022-08-22T13:45:21.047Z,29.24
2022-08-22T13:46:21.045Z,29.28
2022-08-22T13:47:21.057Z,29.35
2022-08-22T13:48:21.043Z,29.39
2022-08-22T13:49:21.053Z,29.46
2022-08-22T13:50:21.082Z,29.41
2022-08-22T13:51:21.055Z,29.40
2022-08-22T13:52:29.335Z,29.38
2022-08-22T13:56:21.083Z,29.39
2022-08-22T13:57:21.071Z,29.34
2022-08-22T13:58:21.080Z,29.37
2022-08-22T13:59:40.353Z,29.33
2022-08-22T14:00:28.532Z,29.29
2022-08-22T14:01:21.109Z,29.27
2022-08-22T14:02:21.121Z,29.31
2022-08-22T14:03:21.090Z,29.34
2022-08-22T14:04:33.321Z,29.37
2022-08-22T14:05:21.114Z,29.40
2022-08-22T14:06:38.131Z,29.34
2022-08-22T14:08:21.104Z,29.31
2022-08-22T14:09:29.550Z,29.29
2022-08-22T14:10:21.117Z,29.30
2022-08-22T14:12:21.129Z,29.32
2022-08-22T14:13:21.117Z,29.31
2022-08-22T14:15:21.125Z,29.27
2022-08-22T14:16:21.148Z,29.19
2022-08-22T14:17:21.151Z,29.14
2022-08-22T14:18:21.125Z,29.06
2022-08-22T14:19:21.132Z,28.95
2022-08-22T14:20:32.359Z,28.87
2022-08-22T14:21:21.134Z,28.88
2022-08-22T14:22:21.135Z,28.90
2022-08-22T14:23:21.140Z,28.93
2022-08-22T14:24:21.156Z,28.85
2022-08-22T14:25:21.286Z,28.86
2022-08-22T14:26:21.160Z,28.79
2022-08-22T14:27:21.141Z,28.74
2022-08-22T14:29:21.156Z,28.75
2022-08-22T14:30:21.152Z,28.79
2022-08-22T14:31:21.168Z,28.75
2022-08-22T14:32:22.589Z,28.74
2022-08-22T14:33:21.180Z,28.69
2022-08-22T14:34:21.188Z,28.72
2022-08-22T14:35:21.712Z,28.79
2022-08-22T14:36:21.316Z,28.84
2022-08-22T14:37:21.179Z,28.90
2022-08-22T14:38:21.168Z,28.94
2022-08-22T14:39:21.171Z,29.03
2022-08-22T14:40:21.271Z,29.08
2022-08-22T14:41:21.187Z,29.14
2022-08-22T14:42:21.196Z,29.18
2022-08-22T14:43:22.500Z,29.21
2022-08-22T14:44:21.200Z,29.24
2022-08-22T14:45:21.962Z,29.25
2022-08-22T14:46:21.221Z,29.27
2022-08-22T14:47:34.441Z,29.21
2022-08-22T14:48:31.690Z,29.16
2022-08-22T14:49:24.902Z,29.06
2022-08-22T14:50:21.200Z,29.01
2022-08-22T14:51:21.334Z,28.94
2022-08-22T14:52:21.228Z,28.87
2022-08-22T14:53:24.909Z,28.83
2022-08-22T14:54:21.861Z,28.81
2022-08-22T14:55:21.215Z,28.83
2022-08-22T14:56:21.224Z,28.86
2022-08-22T14:57:21.294Z,28.90
2022-08-22T14:58:27.651Z,28.88
2022-08-22T14:59:21.223Z,28.84
2022-08-22T15:00:21.231Z,28.82